sensor_id;sensor_type;location;lat;lon;timestamp;temperature;humidity
23744;DHT22;12052;53.478;10.182;2022-08-01T00:00:15;18.00;99.90
23744;DHT22;12052;53.478;10.182;2022-08-01T00:02:44;18.10;99.90
23744;DHT22;12052;53.478;10.182;2022-08-01T00:05:10;18.00;99.90
23744;DHT22;12052;53.478;10.182;2022-08-01T00:07:37;18.10;99.90
23744;DHT22;12052;53.478;10.182;2022-08-01T00:10:05;18.10;99.90
23744;DHT22;12052;53.478;10.182;2022-08-01T00:12:32;18.20;99.90
23744;DHT22;12052;53.478;10.182;2022-08-01T00:15:01;18.00;99.90
23744;DHT22;12052;53.478;10.182;2022-08-01T00:17:31;18.20;99.90
23744;DHT22;12052;53.478;10.182;2022-08-01T00:19:57;18.20;99.90
23744;DHT22;12052;53.478;10.182;2022-08-01T00:22:24;18.10;99.90
23744;DHT22;12052;53.478;10.182;2022-08-01T00:24:50;18.20;99.90
23744;DHT22;12052;53.478;10.182;2022-08-01T00:27:16;18.10;99.90
23744;DHT22;12052;53.478;10.182;2022-08-01T00:29:42;18.10;99.90
23744;DHT22;12052;53.478;10.182;2022-08-01T00:32:08;18.20;99.90
23744;DHT22;12052;53.478;10.182;2022-08-01T00:34:34;18.00;99.90
23744;DHT22;12052;53.478;10.182;2022-08-01T00:37:03;18.20;99.90
23744;DHT22;12052;53.478;10.182;2022-08-01T00:39:32;18.10;99.90
23744;DHT22;12052;53.478;10.182;2022-08-01T00:41:59;18.00;99.90
23744;DHT22;12052;53.478;10.182;2022-08-01T00:44:26;18.00;99.90
23744;DHT22;12052;53.478;10.182;2022-08-01T00:46:52;18.10;99.90
23744;DHT22;12052;53.478;10.182;2022-08-01T00:49:18;18.10;99.90
23744;DHT22;12052;53.478;10.182;2022-08-01T00:51:44;18.00;99.90
23744;DHT22;12052;53.478;10.182;2022-08-01T00:54:10;18.10;99.90
23744;DHT22;12052;53.478;10.182;2022-08-01T00:56:37;18.10;99.90
23744;DHT22;12052;53.478;10.182;2022-08-01T00:59:03;18.00;99.90
23744;DHT22;12052;53.478;10.182;2022-08-01T01:01:32;18.10;99.90
23744;DHT22;12052;53.478;10.182;2022-08-01T01:03:58;18.10;99.90
23744;DHT22;12052;53.478;10.182;2022-08-01T01:06:31;18.10;99.90
23744;DHT22;12052;53.478;10.182;2022-08-01T01:09:31;18.00;99.90
23744;DHT22;12052;53.478;10.182;2022-08-01T01:12:12;18.10;99.90
23744;DHT22;12052;53.478;10.182;2022-08-01T01:17:20;17.90;99.90
23744;DHT22;12052;53.478;10.182;2022-08-01T01:19:51;18.00;99.90
23744;DHT22;12052;53.478;10.182;2022-08-01T01:28:12;18.10;99.90
23744;DHT22;12052;53.478;10.182;2022-08-01T01:30:43;18.10;99.90
23744;DHT22;12052;53.478;10.182;2022-08-01T01:33:12;18.00;99.90
23744;DHT22;12052;53.478;10.182;2022-08-01T01:35:45;18.00;99.90
23744;DHT22;12052;53.478;10.182;2022-08-01T01:38:23;18.00;99.90
23744;DHT22;12052;53.478;10.182;2022-08-01T01:40:52;18.00;99.90
23744;DHT22;12052;53.478;10.182;2022-08-01T01:43:21;18.10;99.90
23744;DHT22;12052;53.478;10.182;2022-08-01T01:45:49;17.90;99.90
23744;DHT22;12052;53.478;10.182;2022-08-01T01:48:19;18.10;99.90
23744;DHT22;12052;53.478;10.182;2022-08-01T01:50:49;18.10;99.90
23744;DHT22;12052;53.478;10.182;2022-08-01T01:53:20;18.10;99.90
23744;DHT22;12052;53.478;10.182;2022-08-01T01:55:49;18.10;99.90
23744;DHT22;12052;53.478;10.182;2022-08-01T01:58:20;18.00;99.90
23744;DHT22;12052;53.478;10.182;2022-08-01T02:00:50;18.00;99.90
23744;DHT22;12052;53.478;10.182;2022-08-01T02:03:18;18.00;99.90
23744;DHT22;12052;53.478;10.182;2022-08-01T02:05:44;18.00;99.90
23744;DHT22;12052;53.478;10.182;2022-08-01T02:08:17;18.10;99.90
23744;DHT22;12052;53.478;10.182;2022-08-01T02:10:44;18.10;99.90
23744;DHT22;12052;53.478;10.182;2022-08-01T02:13:34;18.00;99.90
23744;DHT22;12052;53.478;10.182;2022-08-01T02:16:03;18.00;99.90
23744;DHT22;12052;53.478;10.182;2022-08-01T02:18:30;18.00;99.90
23744;DHT22;12052;53.478;10.182;2022-08-01T02:20:58;18.00;99.90
23744;DHT22;12052;53.478;10.182;2022-08-01T02:23:28;18.00;99.90
23744;DHT22;12052;53.478;10.182;2022-08-01T02:25:58;18.00;99.90
23744;DHT22;12052;53.478;10.182;2022-08-01T02:28:33;17.90;99.90
23744;DHT22;12052;53.478;10.182;2022-08-01T02:31:08;18.00;99.90
23744;DHT22;12052;53.478;10.182;2022-08-01T02:33:43;18.00;99.90
23744;DHT22;12052;53.478;10.182;2022-08-01T02:36:11;17.90;99.90
23744;DHT22;12052;53.478;10.182;2022-08-01T02:38:46;18.00;99.90
23744;DHT22;12052;53.478;10.182;2022-08-01T02:41:19;18.00;99.90
23744;DHT22;12052;53.478;10.182;2022-08-01T02:43:50;17.80;99.90
23744;DHT22;12052;53.478;10.182;2022-08-01T02:46:26;17.90;99.90
23744;DHT22;12052;53.478;10.182;2022-08-01T02:48:55;17.80;99.90
23744;DHT22;12052;53.478;10.182;2022-08-01T02:51:25;17.80;99.90
23744;DHT22;12052;53.478;10.182;2022-08-01T02:53:54;17.80;99.90
23744;DHT22;12052;53.478;10.182;2022-08-01T02:56:25;17.80;99.90
23744;DHT22;12052;53.478;10.182;2022-08-01T02:59:06;17.80;99.90
23744;DHT22;12052;53.478;10.182;2022-08-01T03:01:34;17.80;99.90
23744;DHT22;12052;53.478;10.182;2022-08-01T03:04:03;17.80;99.90
23744;DHT22;12052;53.478;10.182;2022-08-01T03:06:32;17.80;99.90
23744;DHT22;12052;53.478;10.182;2022-08-01T03:09:03;17.80;99.90
23744;DHT22;12052;53.478;10.182;2022-08-01T03:11:31;17.70;99.90
23744;DHT22;12052;53.478;10.182;2022-08-01T03:14:01;17.70;99.90
23744;DHT22;12052;53.478;10.182;2022-08-01T03:16:34;17.80;99.90
23744;DHT22;12052;53.478;10.182;2022-08-01T03:19:03;17.70;99.90
23744;DHT22;12052;53.478;10.182;2022-08-01T03:21:31;17.70;99.90
23744;DHT22;12052;53.478;10.182;2022-08-01T03:24:01;17.70;99.90
23744;DHT22;12052;53.478;10.182;2022-08-01T03:26:33;17.70;99.90
23744;DHT22;12052;53.478;10.182;2022-08-01T03:29:04;17.70;99.90
23744;DHT22;12052;53.478;10.182;2022-08-01T03:31:35;17.70;99.90
23744;DHT22;12052;53.478;10.182;2022-08-01T03:34:02;17.80;99.90
23744;DHT22;12052;53.478;10.182;2022-08-01T03:36:29;17.70;99.90
23744;DHT22;12052;53.478;10.182;2022-08-01T03:38:58;17.80;99.90
23744;DHT22;12052;53.478;10.182;2022-08-01T03:41:29;17.70;99.90
23744;DHT22;12052;53.478;10.182;2022-08-01T03:44:23;17.70;99.90
23744;DHT22;12052;53.478;10.182;2022-08-01T03:46:58;17.70;99.90
23744;DHT22;12052;53.478;10.182;2022-08-01T03:49:28;17.80;99.90
23744;DHT22;12052;53.478;10.182;2022-08-01T03:51:58;17.60;99.90
23744;DHT22;12052;53.478;10.182;2022-08-01T03:54:28;17.70;99.90
23744;DHT22;12052;53.478;10.182;2022-08-01T03:56:55;17.70;99.90
23744;DHT22;12052;53.478;10.182;2022-08-01T03:59:23;17.80;99.90
23744;DHT22;12052;53.478;10.182;2022-08-01T04:01:49;17.70;99.90
23744;DHT22;12052;53.478;10.182;2022-08-01T04:04:18;17.80;99.90
23744;DHT22;12052;53.478;10.182;2022-08-01T04:06:44;17.70;99.90
23744;DHT22;12052;53.478;10.182;2022-08-01T04:09:11;17.80;99.90
23744;DHT22;12052;53.478;10.182;2022-08-01T04:11:38;17.70;99.90
23744;DHT22;12052;53.478;10.182;2022-08-01T04:14:09;17.80;99.90
23744;DHT22;12052;53.478;10.182;2022-08-01T04:16:38;17.80;99.90
23744;DHT22;12052;53.478;10.182;2022-08-01T04:19:05;17.70;99.90
23744;DHT22;12052;53.478;10.182;2022-08-01T04:21:36;17.80;99.90
23744;DHT22;12052;53.478;10.182;2022-08-01T04:24:12;17.70;99.90
23744;DHT22;12052;53.478;10.182;2022-08-01T04:26:40;17.70;99.90
23744;DHT22;12052;53.478;10.182;2022-08-01T04:29:11;17.70;99.90
23744;DHT22;12052;53.478;10.182;2022-08-01T04:31:42;17.70;99.90
23744;DHT22;12052;53.478;10.182;2022-08-01T04:34:12;17.80;99.90
23744;DHT22;12052;53.478;10.182;2022-08-01T04:36:40;17.70;99.90
23744;DHT22;12052;53.478;10.182;2022-08-01T04:39:09;17.80;99.90
23744;DHT22;12052;53.478;10.182;2022-08-01T04:41:37;17.70;99.90
23744;DHT22;12052;53.478;10.182;2022-08-01T04:44:04;17.80;99.90
23744;DHT22;12052;53.478;10.182;2022-08-01T04:46:32;17.80;99.90
23744;DHT22;12052;53.478;10.182;2022-08-01T04:49:04;17.80;99.90
23744;DHT22;12052;53.478;10.182;2022-08-01T04:51:52;17.80;99.90
23744;DHT22;12052;53.478;10.182;2022-08-01T04:54:30;17.80;99.90
23744;DHT22;12052;53.478;10.182;2022-08-01T04:57:05;17.80;99.90
23744;DHT22;12052;53.478;10.182;2022-08-01T04:59:32;17.90;99.90
23744;DHT22;12052;53.478;10.182;2022-08-01T05:02:08;17.90;99.90
23744;DHT22;12052;53.478;10.182;2022-08-01T05:04:34;17.90;99.90
23744;DHT22;12052;53.478;10.182;2022-08-01T05:07:00;17.90;99.90
23744;DHT22;12052;53.478;10.182;2022-08-01T05:09:26;17.90;99.90
23744;DHT22;12052;53.478;10.182;2022-08-01T05:11:53;17.90;99.90
23744;DHT22;12052;53.478;10.182;2022-08-01T05:14:18;17.80;99.90
23744;DHT22;12052;53.478;10.182;2022-08-01T05:16:45;17.90;99.90
23744;DHT22;12052;53.478;10.182;2022-08-01T05:19:11;17.90;99.90
23744;DHT22;12052;53.478;10.182;2022-08-01T05:21:37;17.90;99.90
23744;DHT22;12052;53.478;10.182;2022-08-01T05:24:04;18.00;99.90
23744;DHT22;12052;53.478;10.182;2022-08-01T05:26:29;18.00;99.90
23744;DHT22;12052;53.478;10.182;2022-08-01T05:28:55;18.00;99.90
23744;DHT22;12052;53.478;10.182;2022-08-01T05:31:20;17.90;99.90
23744;DHT22;12052;53.478;10.182;2022-08-01T05:33:46;17.90;99.90
23744;DHT22;12052;53.478;10.182;2022-08-01T05:36:12;17.90;99.90
23744;DHT22;12052;53.478;10.182;2022-08-01T05:38:37;17.80;99.90
23744;DHT22;12052;53.478;10.182;2022-08-01T05:41:03;17.80;99.90
23744;DHT22;12052;53.478;10.182;2022-08-01T05:43:28;17.70;99.90
23744;DHT22;12052;53.478;10.182;2022-08-01T05:45:54;17.70;99.90
23744;DHT22;12052;53.478;10.182;2022-08-01T05:48:20;17.60;99.90
23744;DHT22;12052;53.478;10.182;2022-08-01T05:50:45;17.60;99.90
23744;DHT22;12052;53.478;10.182;2022-08-01T05:53:13;17.60;99.90
23744;DHT22;12052;53.478;10.182;2022-08-01T05:55:38;17.60;99.90
23744;DHT22;12052;53.478;10.182;2022-08-01T05:58:04;17.60;99.90
23744;DHT22;12052;53.478;10.182;2022-08-01T06:00:29;17.70;99.90
23744;DHT22;12052;53.478;10.182;2022-08-01T06:02:55;17.70;99.90
23744;DHT22;12052;53.478;10.182;2022-08-01T06:05:20;17.70;99.90
23744;DHT22;12052;53.478;10.182;2022-08-01T06:07:46;17.70;99.90
23744;DHT22;12052;53.478;10.182;2022-08-01T06:10:11;17.70;99.90
23744;DHT22;12052;53.478;10.182;2022-08-01T06:12:37;17.70;99.90
23744;DHT22;12052;53.478;10.182;2022-08-01T06:15:05;17.80;99.90
23744;DHT22;12052;53.478;10.182;2022-08-01T06:17:30;17.80;99.90
23744;DHT22;12052;53.478;10.182;2022-08-01T06:19:56;17.80;99.90
23744;DHT22;12052;53.478;10.182;2022-08-01T06:22:22;17.90;99.90
23744;DHT22;12052;53.478;10.182;2022-08-01T06:24:47;17.90;99.90
23744;DHT22;12052;53.478;10.182;2022-08-01T06:27:13;17.90;99.90
23744;DHT22;12052;53.478;10.182;2022-08-01T06:29:38;17.90;99.90
23744;DHT22;12052;53.478;10.182;2022-08-01T06:32:04;18.00;99.90
23744;DHT22;12052;53.478;10.182;2022-08-01T06:34:30;18.10;99.90
23744;DHT22;12052;53.478;10.182;2022-08-01T06:36:55;18.00;99.90
23744;DHT22;12052;53.478;10.182;2022-08-01T06:39:21;18.00;99.90
23744;DHT22;12052;53.478;10.182;2022-08-01T06:41:47;18.10;99.90
23744;DHT22;12052;53.478;10.182;2022-08-01T06:44:13;18.00;99.90
23744;DHT22;12052;53.478;10.182;2022-08-01T06:46:38;18.00;99.90
23744;DHT22;12052;53.478;10.182;2022-08-01T06:49:04;18.00;99.90
23744;DHT22;12052;53.478;10.182;2022-08-01T06:51:29;18.10;99.90
23744;DHT22;12052;53.478;10.182;2022-08-01T06:53:55;18.10;99.90
23744;DHT22;12052;53.478;10.182;2022-08-01T06:56:21;18.10;99.90
23744;DHT22;12052;53.478;10.182;2022-08-01T06:58:46;18.10;99.90
23744;DHT22;12052;53.478;10.182;2022-08-01T07:01:12;18.10;99.90
23744;DHT22;12052;53.478;10.182;2022-08-01T07:03:37;18.10;99.90
23744;DHT22;12052;53.478;10.182;2022-08-01T07:06:03;18.00;99.90
23744;DHT22;12052;53.478;10.182;2022-08-01T07:08:29;18.00;99.90
23744;DHT22;12052;53.478;10.182;2022-08-01T07:10:55;17.90;99.90
23744;DHT22;12052;53.478;10.182;2022-08-01T07:13:27;17.90;99.90
23744;DHT22;12052;53.478;10.182;2022-08-01T07:15:52;17.90;99.90
23744;DHT22;12052;53.478;10.182;2022-08-01T07:18:18;17.90;99.90
23744;DHT22;12052;53.478;10.182;2022-08-01T07:20:44;18.00;99.90
23744;DHT22;12052;53.478;10.182;2022-08-01T07:23:11;18.10;99.90
23744;DHT22;12052;53.478;10.182;2022-08-01T07:25:37;18.10;99.90
23744;DHT22;12052;53.478;10.182;2022-08-01T07:28:03;18.20;99.90
23744;DHT22;12052;53.478;10.182;2022-08-01T07:30:29;18.20;99.90
23744;DHT22;12052;53.478;10.182;2022-08-01T07:32:54;18.10;99.90
23744;DHT22;12052;53.478;10.182;2022-08-01T07:35:20;18.10;99.90
23744;DHT22;12052;53.478;10.182;2022-08-01T07:37:45;18.10;99.90
23744;DHT22;12052;53.478;10.182;2022-08-01T07:40:11;18.10;99.90
23744;DHT22;12052;53.478;10.182;2022-08-01T07:42:37;18.10;99.90
23744;DHT22;12052;53.478;10.182;2022-08-01T07:45:03;18.10;99.90
23744;DHT22;12052;53.478;10.182;2022-08-01T07:47:29;18.10;99.90
23744;DHT22;12052;53.478;10.182;2022-08-01T07:50:02;18.10;99.90
23744;DHT22;12052;53.478;10.182;2022-08-01T07:52:28;18.10;99.90
23744;DHT22;12052;53.478;10.182;2022-08-01T07:54:53;18.00;99.90
23744;DHT22;12052;53.478;10.182;2022-08-01T07:57:20;18.00;99.90
23744;DHT22;12052;53.478;10.182;2022-08-01T07:59:45;18.00;99.90
23744;DHT22;12052;53.478;10.182;2022-08-01T08:02:11;18.00;99.90
23744;DHT22;12052;53.478;10.182;2022-08-01T08:04:36;18.00;99.90
23744;DHT22;12052;53.478;10.182;2022-08-01T08:07:02;18.10;99.90
23744;DHT22;12052;53.478;10.182;2022-08-01T08:09:28;18.10;99.90
23744;DHT22;12052;53.478;10.182;2022-08-01T08:11:54;18.00;99.90
23744;DHT22;12052;53.478;10.182;2022-08-01T08:14:19;17.90;99.90
23744;DHT22;12052;53.478;10.182;2022-08-01T08:16:48;17.90;99.90
23744;DHT22;12052;53.478;10.182;2022-08-01T08:19:14;17.90;99.90
23744;DHT22;12052;53.478;10.182;2022-08-01T08:21:40;17.90;99.90
23744;DHT22;12052;53.478;10.182;2022-08-01T08:24:09;17.90;99.90
23744;DHT22;12052;53.478;10.182;2022-08-01T08:26:48;17.90;99.90
23744;DHT22;12052;53.478;10.182;2022-08-01T08:29:14;18.00;99.90
23744;DHT22;12052;53.478;10.182;2022-08-01T08:31:40;18.10;99.90
23744;DHT22;12052;53.478;10.182;2022-08-01T08:34:06;18.20;99.90
23744;DHT22;12052;53.478;10.182;2022-08-01T08:36:31;18.20;99.90
23744;DHT22;12052;53.478;10.182;2022-08-01T08:38:58;18.30;99.90
23744;DHT22;12052;53.478;10.182;2022-08-01T08:41:26;18.40;99.90
23744;DHT22;12052;53.478;10.182;2022-08-01T08:43:51;18.30;99.90
23744;DHT22;12052;53.478;10.182;2022-08-01T08:46:19;18.40;99.90
23744;DHT22;12052;53.478;10.182;2022-08-01T08:48:45;18.40;99.90
23744;DHT22;12052;53.478;10.182;2022-08-01T08:51:12;18.50;99.90
23744;DHT22;12052;53.478;10.182;2022-08-01T08:53:41;18.50;99.90
23744;DHT22;12052;53.478;10.182;2022-08-01T08:56:13;18.40;99.90
23744;DHT22;12052;53.478;10.182;2022-08-01T08:58:41;18.40;99.90
23744;DHT22;12052;53.478;10.182;2022-08-01T09:01:08;18.40;99.90
23744;DHT22;12052;53.478;10.182;2022-08-01T09:03:34;18.40;99.90
23744;DHT22;12052;53.478;10.182;2022-08-01T09:06:00;18.40;99.90
23744;DHT22;12052;53.478;10.182;2022-08-01T09:08:25;18.30;99.90
23744;DHT22;12052;53.478;10.182;2022-08-01T09:10:51;18.40;99.90
23744;DHT22;12052;53.478;10.182;2022-08-01T09:13:17;18.50;99.90
23744;DHT22;12052;53.478;10.182;2022-08-01T09:15:46;18.60;99.90
23744;DHT22;12052;53.478;10.182;2022-08-01T09:18:31;18.70;99.90
23744;DHT22;12052;53.478;10.182;2022-08-01T09:21:10;18.90;99.90
23744;DHT22;12052;53.478;10.182;2022-08-01T09:23:39;18.90;99.90
23744;DHT22;12052;53.478;10.182;2022-08-01T09:26:37;19.00;99.90
23744;DHT22;12052;53.478;10.182;2022-08-01T09:29:05;19.00;99.90
23744;DHT22;12052;53.478;10.182;2022-08-01T09:31:40;19.00;99.90
23744;DHT22;12052;53.478;10.182;2022-08-01T09:34:07;19.00;99.90
23744;DHT22;12052;53.478;10.182;2022-08-01T09:37:10;19.10;99.90
23744;DHT22;12052;53.478;10.182;2022-08-01T09:39:38;19.20;99.90
23744;DHT22;12052;53.478;10.182;2022-08-01T09:42:23;19.30;99.90
23744;DHT22;12052;53.478;10.182;2022-08-01T09:44:49;19.40;99.90
23744;DHT22;12052;53.478;10.182;2022-08-01T09:47:15;19.40;99.90
23744;DHT22;12052;53.478;10.182;2022-08-01T09:49:42;19.60;99.90
23744;DHT22;12052;53.478;10.182;2022-08-01T09:54:37;19.80;99.90
23744;DHT22;12052;53.478;10.182;2022-08-01T09:57:14;19.90;99.90
23744;DHT22;12052;53.478;10.182;2022-08-01T09:59:42;20.00;99.90
23744;DHT22;12052;53.478;10.182;2022-08-01T10:02:10;20.00;99.90
23744;DHT22;12052;53.478;10.182;2022-08-01T10:04:46;20.00;99.90
23744;DHT22;12052;53.478;10.182;2022-08-01T10:07:12;20.20;99.90
23744;DHT22;12052;53.478;10.182;2022-08-01T10:09:41;20.30;99.90
23744;DHT22;12052;53.478;10.182;2022-08-01T10:12:07;20.40;99.90
23744;DHT22;12052;53.478;10.182;2022-08-01T10:14:33;20.40;99.90
23744;DHT22;12052;53.478;10.182;2022-08-01T10:17:00;20.40;99.90
23744;DHT22;12052;53.478;10.182;2022-08-01T10:19:27;20.40;99.90
23744;DHT22;12052;53.478;10.182;2022-08-01T10:21:54;20.50;99.90
23744;DHT22;12052;53.478;10.182;2022-08-01T10:24:21;20.60;99.90
23744;DHT22;12052;53.478;10.182;2022-08-01T10:26:58;20.70;99.90
23744;DHT22;12052;53.478;10.182;2022-08-01T10:29:54;20.80;99.90
23744;DHT22;12052;53.478;10.182;2022-08-01T10:32:16;20.90;99.90
23744;DHT22;12052;53.478;10.182;2022-08-01T10:34:43;20.80;99.90
23744;DHT22;12052;53.478;10.182;2022-08-01T10:37:08;20.80;99.90
23744;DHT22;12052;53.478;10.182;2022-08-01T10:39:35;20.70;99.90
23744;DHT22;12052;53.478;10.182;2022-08-01T10:42:01;20.80;99.90
23744;DHT22;12052;53.478;10.182;2022-08-01T10:44:29;20.90;99.90
23744;DHT22;12052;53.478;10.182;2022-08-01T10:47:21;20.90;99.90
23744;DHT22;12052;53.478;10.182;2022-08-01T10:52:38;21.00;99.90
23744;DHT22;12052;53.478;10.182;2022-08-01T10:55:05;21.00;99.90
23744;DHT22;12052;53.478;10.182;2022-08-01T10:57:44;21.10;99.90
23744;DHT22;12052;53.478;10.182;2022-08-01T11:00:17;21.30;99.90
23744;DHT22;12052;53.478;10.182;2022-08-01T11:03:00;21.50;99.90
23744;DHT22;12052;53.478;10.182;2022-08-01T11:05:28;21.50;99.90
23744;DHT22;12052;53.478;10.182;2022-08-01T11:07:55;21.50;99.90
23744;DHT22;12052;53.478;10.182;2022-08-01T11:10:42;21.60;99.90
23744;DHT22;12052;53.478;10.182;2022-08-01T11:13:08;21.60;99.90
23744;DHT22;12052;53.478;10.182;2022-08-01T11:15:37;21.60;99.90
23744;DHT22;12052;53.478;10.182;2022-08-01T11:18:28;21.70;99.90
23744;DHT22;12052;53.478;10.182;2022-08-01T11:20:58;21.70;99.90
23744;DHT22;12052;53.478;10.182;2022-08-01T11:23:24;21.80;99.90
23744;DHT22;12052;53.478;10.182;2022-08-01T11:28:19;21.90;99.90
23744;DHT22;12052;53.478;10.182;2022-08-01T11:38:41;21.90;99.90
23744;DHT22;12052;53.478;10.182;2022-08-01T11:46:51;21.90;99.90
23744;DHT22;12052;53.478;10.182;2022-08-01T11:52:29;21.80;99.90
23744;DHT22;12052;53.478;10.182;2022-08-01T11:54:57;21.80;99.90
23744;DHT22;12052;53.478;10.182;2022-08-01T11:57:28;21.80;99.90
23744;DHT22;12052;53.478;10.182;2022-08-01T11:59:58;21.90;99.90
23744;DHT22;12052;53.478;10.182;2022-08-01T12:02:25;21.90;99.90
23744;DHT22;12052;53.478;10.182;2022-08-01T12:04:54;22.00;99.90
23744;DHT22;12052;53.478;10.182;2022-08-01T12:07:21;22.00;99.90
23744;DHT22;12052;53.478;10.182;2022-08-01T12:09:48;22.10;99.90
23744;DHT22;12052;53.478;10.182;2022-08-01T12:12:21;22.20;99.90
23744;DHT22;12052;53.478;10.182;2022-08-01T12:14:59;22.10;99.90
23744;DHT22;12052;53.478;10.182;2022-08-01T12:19:54;22.00;99.90
23744;DHT22;12052;53.478;10.182;2022-08-01T12:22:22;22.20;99.90
23744;DHT22;12052;53.478;10.182;2022-08-01T12:24:48;22.30;99.90
23744;DHT22;12052;53.478;10.182;2022-08-01T12:27:27;22.30;99.90
23744;DHT22;12052;53.478;10.182;2022-08-01T12:29:54;22.40;99.90
23744;DHT22;12052;53.478;10.182;2022-08-01T12:34:50;22.30;99.90
23744;DHT22;12052;53.478;10.182;2022-08-01T12:37:16;22.40;99.90
23744;DHT22;12052;53.478;10.182;2022-08-01T12:39:42;22.40;99.90
23744;DHT22;12052;53.478;10.182;2022-08-01T12:42:08;22.20;99.90
23744;DHT22;12052;53.478;10.182;2022-08-01T12:44:36;22.20;99.90
23744;DHT22;12052;53.478;10.182;2022-08-01T12:47:04;22.20;99.90
23744;DHT22;12052;53.478;10.182;2022-08-01T12:49:32;22.30;99.90
23744;DHT22;12052;53.478;10.182;2022-08-01T12:51:57;22.20;99.90
23744;DHT22;12052;53.478;10.182;2022-08-01T12:54:23;22.20;99.90
23744;DHT22;12052;53.478;10.182;2022-08-01T12:56:51;22.20;99.90
23744;DHT22;12052;53.478;10.182;2022-08-01T12:59:22;22.20;99.90
23744;DHT22;12052;53.478;10.182;2022-08-01T13:01:53;22.10;99.90
23744;DHT22;12052;53.478;10.182;2022-08-01T13:04:19;22.10;99.90
23744;DHT22;12052;53.478;10.182;2022-08-01T13:06:45;22.00;99.90
23744;DHT22;12052;53.478;10.182;2022-08-01T13:09:11;22.00;99.90
23744;DHT22;12052;53.478;10.182;2022-08-01T13:11:42;22.00;99.90
23744;DHT22;12052;53.478;10.182;2022-08-01T13:14:09;22.10;99.90
23744;DHT22;12052;53.478;10.182;2022-08-01T13:16:46;22.10;99.90
23744;DHT22;12052;53.478;10.182;2022-08-01T13:19:12;22.00;99.90
23744;DHT22;12052;53.478;10.182;2022-08-01T13:21:37;22.00;99.90
23744;DHT22;12052;53.478;10.182;2022-08-01T13:24:12;22.10;99.90
23744;DHT22;12052;53.478;10.182;2022-08-01T13:26:50;22.10;99.90
23744;DHT22;12052;53.478;10.182;2022-08-01T13:29:21;22.10;99.90
23744;DHT22;12052;53.478;10.182;2022-08-01T13:31:48;22.10;99.90
23744;DHT22;12052;53.478;10.182;2022-08-01T13:34:14;22.20;99.90
23744;DHT22;12052;53.478;10.182;2022-08-01T13:36:41;22.30;99.90
23744;DHT22;12052;53.478;10.182;2022-08-01T13:39:07;22.50;99.90
23744;DHT22;12052;53.478;10.182;2022-08-01T13:41:52;22.40;99.90
23744;DHT22;12052;53.478;10.182;2022-08-01T13:44:18;22.30;99.90
23744;DHT22;12052;53.478;10.182;2022-08-01T13:46:44;22.30;99.90
23744;DHT22;12052;53.478;10.182;2022-08-01T13:49:11;22.30;99.90
23744;DHT22;12052;53.478;10.182;2022-08-01T13:51:37;22.20;99.90
23744;DHT22;12052;53.478;10.182;2022-08-01T13:54:04;22.20;99.90
23744;DHT22;12052;53.478;10.182;2022-08-01T13:56:30;22.20;99.90
23744;DHT22;12052;53.478;10.182;2022-08-01T13:58:56;22.20;99.90
23744;DHT22;12052;53.478;10.182;2022-08-01T14:01:23;22.10;99.90
23744;DHT22;12052;53.478;10.182;2022-08-01T14:03:50;22.10;99.90
23744;DHT22;12052;53.478;10.182;2022-08-01T14:06:17;22.00;99.90
23744;DHT22;12052;53.478;10.182;2022-08-01T14:08:43;22.00;99.90
23744;DHT22;12052;53.478;10.182;2022-08-01T14:11:09;22.00;99.90
23744;DHT22;12052;53.478;10.182;2022-08-01T14:13:35;22.00;99.90
23744;DHT22;12052;53.478;10.182;2022-08-01T14:16:04;21.90;99.90
23744;DHT22;12052;53.478;10.182;2022-08-01T14:18:30;21.90;99.90
23744;DHT22;12052;53.478;10.182;2022-08-01T14:20:55;21.80;99.90
23744;DHT22;12052;53.478;10.182;2022-08-01T14:23:21;21.80;99.90
23744;DHT22;12052;53.478;10.182;2022-08-01T14:25:46;21.80;99.90
23744;DHT22;12052;53.478;10.182;2022-08-01T14:28:12;21.70;99.90
23744;DHT22;12052;53.478;10.182;2022-08-01T14:30:37;21.80;99.90
23744;DHT22;12052;53.478;10.182;2022-08-01T14:33:03;21.80;99.90
23744;DHT22;12052;53.478;10.182;2022-08-01T14:35:29;21.70;99.90
23744;DHT22;12052;53.478;10.182;2022-08-01T14:37:54;21.70;99.90
23744;DHT22;12052;53.478;10.182;2022-08-01T14:40:20;21.70;99.90
23744;DHT22;12052;53.478;10.182;2022-08-01T14:42:45;21.70;99.90
23744;DHT22;12052;53.478;10.182;2022-08-01T14:45:12;21.60;99.90
23744;DHT22;12052;53.478;10.182;2022-08-01T14:47:39;21.60;99.90
23744;DHT22;12052;53.478;10.182;2022-08-01T14:50:10;21.50;99.90
23744;DHT22;12052;53.478;10.182;2022-08-01T14:52:37;21.50;99.90
23744;DHT22;12052;53.478;10.182;2022-08-01T14:55:04;21.50;99.90
23744;DHT22;12052;53.478;10.182;2022-08-01T14:57:31;21.50;99.90
23744;DHT22;12052;53.478;10.182;2022-08-01T14:59:56;21.30;99.90
23744;DHT22;12052;53.478;10.182;2022-08-01T15:02:22;21.30;99.90
23744;DHT22;12052;53.478;10.182;2022-08-01T15:04:48;21.20;99.90
23744;DHT22;12052;53.478;10.182;2022-08-01T15:07:15;21.30;99.90
23744;DHT22;12052;53.478;10.182;2022-08-01T15:09:42;21.30;99.90
23744;DHT22;12052;53.478;10.182;2022-08-01T15:12:08;21.30;99.90
23744;DHT22;12052;53.478;10.182;2022-08-01T15:14:34;21.30;99.90
23744;DHT22;12052;53.478;10.182;2022-08-01T15:19:45;21.30;99.90
23744;DHT22;12052;53.478;10.182;2022-08-01T15:22:11;21.10;99.90
23744;DHT22;12052;53.478;10.182;2022-08-01T15:24:37;21.00;99.90
23744;DHT22;12052;53.478;10.182;2022-08-01T15:27:03;21.00;99.90
23744;DHT22;12052;53.478;10.182;2022-08-01T15:29:29;21.10;99.90
23744;DHT22;12052;53.478;10.182;2022-08-01T15:31:54;21.00;99.90
23744;DHT22;12052;53.478;10.182;2022-08-01T15:34:20;21.00;99.90
23744;DHT22;12052;53.478;10.182;2022-08-01T15:36:46;21.00;99.90
23744;DHT22;12052;53.478;10.182;2022-08-01T15:39:12;20.90;99.90
23744;DHT22;12052;53.478;10.182;2022-08-01T15:41:38;20.70;99.90
23744;DHT22;12052;53.478;10.182;2022-08-01T15:44:03;20.80;99.90
23744;DHT22;12052;53.478;10.182;2022-08-01T15:46:29;20.80;99.90
23744;DHT22;12052;53.478;10.182;2022-08-01T15:48:55;20.90;99.90
23744;DHT22;12052;53.478;10.182;2022-08-01T15:51:20;20.90;99.90
23744;DHT22;12052;53.478;10.182;2022-08-01T15:53:46;20.70;99.90
23744;DHT22;12052;53.478;10.182;2022-08-01T15:56:12;20.70;99.90
23744;DHT22;12052;53.478;10.182;2022-08-01T15:58:38;20.70;99.90
23744;DHT22;12052;53.478;10.182;2022-08-01T16:01:04;20.70;99.90
23744;DHT22;12052;53.478;10.182;2022-08-01T16:03:29;20.70;99.90